地図

経路データ

SID SEASON NUMBER BASIN SUBBASIN NAME ISO_TIME NATURE LAT LON WMO_WIND WMO_PRES WMO_AGENCY TRACK_TYPE DIST2LAND LANDFALL IFLAG USA_AGENCY USA_ATCF_ID USA_LAT USA_LON USA_RECORD USA_STATUS USA_WIND USA_PRES USA_SSHS USA_R34_NE USA_R34_SE USA_R34_SW USA_R34_NW USA_R50_NE USA_R50_SE USA_R50_SW USA_R50_NW USA_R64_NE USA_R64_SE USA_R64_SW USA_R64_NW USA_POCI USA_ROCI USA_RMW USA_EYE TOKYO_LAT TOKYO_LON TOKYO_GRADE TOKYO_WIND TOKYO_PRES TOKYO_R50_DIR TOKYO_R50_LONG TOKYO_R50_SHORT TOKYO_R30_DIR TOKYO_R30_LONG TOKYO_R30_SHORT TOKYO_LAND CMA_LAT CMA_LON CMA_CAT CMA_WIND CMA_PRES HKO_LAT HKO_LON HKO_CAT HKO_WIND HKO_PRES NEWDELHI_LAT NEWDELHI_LON NEWDELHI_GRADE NEWDELHI_WIND NEWDELHI_PRES NEWDELHI_CI NEWDELHI_DP NEWDELHI_POCI REUNION_LAT REUNION_LON REUNION_TYPE REUNION_WIND REUNION_PRES REUNION_TNUM REUNION_CI REUNION_RMW REUNION_R34_NE REUNION_R34_SE REUNION_R34_SW REUNION_R34_NW REUNION_R50_NE REUNION_R50_SE REUNION_R50_SW REUNION_R50_NW REUNION_R64_NE REUNION_R64_SE REUNION_R64_SW REUNION_R64_NW BOM_LAT BOM_LON BOM_TYPE BOM_WIND BOM_PRES BOM_TNUM BOM_CI BOM_RMW BOM_R34_NE BOM_R34_SE BOM_R34_SW BOM_R34_NW BOM_R50_NE BOM_R50_SE BOM_R50_SW BOM_R50_NW BOM_R64_NE BOM_R64_SE BOM_R64_SW BOM_R64_NW BOM_ROCI BOM_POCI BOM_EYE BOM_POS_METHOD BOM_PRES_METHOD NADI_LAT NADI_LON NADI_CAT NADI_WIND NADI_PRES WELLINGTON_LAT WELLINGTON_LON WELLINGTON_WIND WELLINGTON_PRES DS824_LAT DS824_LON DS824_STAGE DS824_WIND DS824_PRES TD9636_LAT TD9636_LON TD9636_STAGE TD9636_WIND TD9636_PRES TD9635_LAT TD9635_LON TD9635_WIND TD9635_PRES TD9635_ROCI NEUMANN_LAT NEUMANN_LON NEUMANN_CLASS NEUMANN_WIND NEUMANN_PRES MLC_LAT MLC_LON MLC_CLASS MLC_WIND MLC_PRES USA_GUST BOM_GUST BOM_GUST_PER REUNION_GUST REUNION_GUST_PER USA_SEAHGT USA_SEARAD_NE USA_SEARAD_SE USA_SEARAD_SW USA_SEARAD_NW STORM_SPEED STORM_DIR
1953080S24153 1953 16 SP EA NOT_NAMED 1953-03-20 23:00:00 NR -23.5000 153.000 main 136 136 __________O___ -1 -23.5000 153.000 7 1 0
1953080S24153 1953 16 SP EA NOT_NAMED 1953-03-21 00:00:00 TS -23.5144 152.992 main 136 121 O________OP___ jtwc_sh SH171953 -23.5000 153.000 -1 -23.5000 153.000 TC -23.5289 152.984 7 2 207
1953080S24153 1953 16 SP EA NOT_NAMED 1953-03-21 03:00:00 TS -23.6117 152.942 main 121 115 P________PP___ SH171953 -23.6100 152.948 -1 -23.6100 152.948 TC -23.6139 152.935 7 2 205
1953080S24153 1953 16 SP EA NOT_NAMED 1953-03-21 06:00:00 TS -23.6972 152.894 main 115 110 O________OP___ jtwc_sh SH171953 -23.7000 152.900 -1 -23.7000 152.900 TC -23.6930 152.886 7 2 211
1953080S24153 1953 16 SP EA NOT_NAMED 1953-03-21 09:00:00 TS -23.7590 152.850 main 110 101 P________PP___ SH171953 -23.7575 152.857 -1 -23.7575 152.857 TC -23.7619 152.835 7 1 218
1953080S24153 1953 16 SP EA NOT_NAMED 1953-03-21 11:00:00 TS -23.7906 152.815 main 101 101 P________PO___ SH171953 -23.7859 152.822 -1 -23.7859 152.822 TC -23.8000 152.800 7 1 227
1953080S24153 1953 16 SP EA NOT_NAMED 1953-03-21 12:00:00 TS -23.8054 152.794 main 101 87 O________OP___ jtwc_sh SH171953 -23.8000 152.800 -1 -23.8000 152.800 TC -23.8163 152.782 7 2 236
1953080S24153 1953 16 SP EA NOT_NAMED 1953-03-21 15:00:00 TS -23.8527 152.708 main 87 78 P________PP___ SH171953 -23.8500 152.700 -1 -23.8500 152.700 TC -23.8582 152.724 7 2 239
1953080S24153 1953 16 SP EA NOT_NAMED 1953-03-21 18:00:00 TS -23.8998 152.618 main 78 78 O________OP___ jtwc_sh SH171953 -23.9000 152.600 -1 -23.9000 152.600 TC -23.8993 152.655 7 2 236
1953080S24153 1953 16 SP EA NOT_NAMED 1953-03-21 21:00:00 TS -23.9407 152.562 main 78 78 P________PP___ SH171953 -23.9350 152.557 -1 -23.9350 152.557 TC -23.9521 152.570 7 1 248
1953080S24153 1953 16 SP EA NOT_NAMED 1953-03-21 23:00:00 TS -23.9212 152.554 bom main 78 78 P_____O__PO___ SH171953 -23.9719 152.525 -1 -23.2000 153.000 -23.9719 152.525 TC -24.0000 152.500 7 2 0
1953080S24153 1953 16 SP EA NOT_NAMED 1953-03-22 00:00:00 TS -23.8596 152.556 main 78 60 O_____P__OP___ jtwc_sh SH171953 -24.0000 152.500 -1 -23.2364 152.846 -24.0000 152.500 TC -24.0304 152.463 7 3 269
1953080S24153 1953 16 SP EA NOT_NAMED 1953-03-22 03:00:00 TS -23.9234 152.370 main 60 37 P_____P__PP___ SH171953 -24.1425 152.373 -1 -23.3687 152.390 -24.1425 152.373 TC -24.1375 152.335 7 4 246
1953080S24153 1953 16 SP EA NOT_NAMED 1953-03-22 05:00:00 TS -23.9991 152.206 1009 bom main 37 23 P_____O__PP___ SH171953 -24.2505 152.261 -1 -23.5000 152.100 1009 4 -24.2505 152.261 TC -24.2200 152.237 7 5 234
1953080S24153 1953 16 SP EA NOT_NAMED 1953-03-22 06:00:00 TS -24.0820 152.129 main 23 0 O_____P__OP___ jtwc_sh SH171953 -24.3000 152.200 -1 -23.5849 151.961 -24.3000 152.200 TC -24.2638 152.186 7 6 225
1953080S24153 1953 16 SP EA NOT_NAMED 1953-03-22 09:00:00 TS -24.2737 151.904 main 0 0 P_____P__PP___ SH171953 -24.4000 152.000 -1 -23.8915 151.596 -24.4000 152.000 TC -24.4030 152.019 7 6 228
1953080S24153 1953 16 SP EA NOT_NAMED 1953-03-22 10:00:00 TS -24.3283 151.831 bom main 0 0 P_____O__PP___ SH171953 -24.4309 151.931 -1 -24.0000 151.500 -24.4309 151.931 TC -24.4513 151.960 7 5 230
1953080S24153 1953 16 SP EA NOT_NAMED 1953-03-22 11:00:00 TS -24.3835 151.762 main 0 0 P_____P__PO___ SH171953 -24.4636 151.864 -1 -24.1067 151.421 -24.4636 151.864 TC -24.5000 151.900 7 5 232
1953080S24153 1953 16 SP EA NOT_NAMED 1953-03-22 12:00:00 TS -24.4315 151.684 main 0 0 O_____P__OP___ jtwc_sh SH171953 -24.5000 151.800 -1 -24.2112 151.357 -24.5000 151.800 TC -24.5491 151.838 7 5 221
1953080S24153 1953 16 SP EA NOT_NAMED 1953-03-22 15:00:00 TS -24.6259 151.533 main 0 0 P_____P__PP___ SH171953 -24.6375 151.638 -1 -24.5146 151.241 -24.6375 151.638 TC -24.6977 151.646 7 5 213
1953080S24153 1953 16 SP EA NOT_NAMED 1953-03-22 18:00:00 TS -24.8258 151.399 main 0 0 O_____P__OP___ jtwc_sh SH171953 -24.8000 151.500 -1 -24.8074 151.204 -24.8000 151.500 TC -24.8480 151.445 7 5 214
1953080S24153 1953 16 SP EA NOT_NAMED 1953-03-22 20:00:00 NR -24.9615 151.281 1009 bom main 0 0 ______O___P___ SH171953 -1 -25.0000 151.200 1009 TC -24.9487 151.308 7 5 219
1953080S24153 1953 16 SP EA NOT_NAMED 1953-03-22 21:00:00 NR -24.9991 151.239 main 0 0 __________P___ SH171953 -1 TC -24.9991 151.239 7 4 229
1953080S24153 1953 16 SP EA NOT_NAMED 1953-03-22 23:00:00 NR -25.1000 151.100 main 0 __________O___ SH171953 -1 TC -25.1000 151.100 7 5 232

デジタル台風データ・検索

IBTrACS Databaseについて

本データベースは、米国NOAAが公開する1842年以降の世界の熱帯低気圧のベストトラックデータアーカイブInternational Best Track Archive for Climate Stewardship (IBTrACS)を、ウェブで閲覧しやすい形式に変換したものです。

最終更新日:2021-10-27